Time;durP1;ratioP1;P1;durP2;ratioP2;P2;SDS_P1;SDS_P2;PMS_P1;PMS_P2;Temp;Humidity;BMP_temperature;BMP_pressure;BME280_temperature;BME280_humidity;BME280_pressure;Samples;Min_cycle;Max_cycle;Signal;HPM_P1;HPM_P2
2023/02/11 13:40:11;;;;;;;14.75;7.85;;;10.80;99.90;;;;;;5067649;28;20345;-63
2023/02/11 13:42:53;;;;;;;15.88;8.18;;;10.80;99.90;;;;;;5068239;28;20040;-62
2023/02/11 13:45:27;;;;;;;12.60;7.55;;;10.90;99.90;;;;;;5052959;28;20127;-61
2023/02/11 13:48:01;;;;;;;13.77;8.80;;;10.90;99.90;;;;;;5051851;28;20021;-61
2023/02/11 13:50:29;;;;;;;14.10;7.85;;;11.00;99.90;;;;;;5053215;28;20029;-63
2023/02/11 13:53:01;;;;;;;14.18;8.02;;;11.10;99.90;;;;;;5050288;28;20036;-66
2023/02/11 13:55:27;;;;;;;13.15;8.10;;;11.10;99.90;;;;;;5047363;28;20036;-63
2023/02/11 13:58:05;;;;;;;11.38;7.22;;;11.20;99.90;;;;;;5063198;28;20100;-59
2023/02/11 14:00:33;;;;;;;13.18;7.30;;;11.20;99.90;;;;;;5048862;28;20366;-60
2023/02/11 14:09:07;;;;;;;13.45;7.55;;;11.10;99.90;;;;;;5046940;28;20031;-60
2023/02/11 14:11:39;;;;;;;12.70;6.88;;;11.10;99.90;;;;;;5061866;28;20029;-61
2023/02/11 14:14:22;;;;;;;10.93;7.05;;;11.00;99.90;;;;;;5063995;28;20088;-66
2023/02/11 14:17:00;;;;;;;13.07;7.18;;;11.10;99.90;;;;;;5045740;28;20025;-63
2023/02/11 14:19:33;;;;;;;11.07;6.75;;;11.00;99.90;;;;;;5051185;28;20462;-62
2023/02/11 14:22:04;;;;;;;11.30;6.85;;;11.10;99.90;;;;;;5065055;28;20051;-63
2023/02/11 14:24:33;;;;;;;13.18;7.35;;;11.10;99.90;;;;;;5064609;28;20649;-63
2023/02/11 14:27:19;;;;;;;12.60;6.63;;;11.10;99.90;;;;;;5065932;28;20067;-63
2023/02/11 14:30:21;;;;;;;14.95;6.72;;;11.10;99.90;;;;;;5065323;28;20067;-63
2023/02/11 14:33:05;;;;;;;12.85;6.65;;;11.10;99.90;;;;;;5062606;28;20462;-63
2023/02/11 14:36:06;;;;;;;11.73;6.07;;;11.20;99.90;;;;;;5066727;28;20480;-63
2023/02/11 14:39:03;;;;;;;14.32;6.95;;;11.30;99.90;;;;;;5065805;28;20051;-63
2023/02/11 14:41:32;;;;;;;11.57;6.57;;;11.30;99.90;;;;;;5067290;28;20021;-63
2023/02/11 14:44:03;;;;;;;10.15;5.97;;;11.20;99.90;;;;;;5064670;28;20123;-63
2023/02/11 14:46:29;;;;;;;;;;;11.20;99.90;;;;;;5067520;28;20019;-63
2023/02/11 14:48:59;;;;;;;10.65;6.53;;;11.10;99.90;;;;;;5060008;28;19999;-63
2023/02/11 14:51:33;;;;;;;11.15;6.43;;;11.10;99.90;;;;;;5033450;28;20025;-63
2023/02/11 14:54:15;;;;;;;14.52;7.40;;;11.10;99.90;;;;;;5033692;28;20524;-63
2023/02/11 14:56:43;;;;;;;10.77;5.72;;;11.00;99.90;;;;;;5033185;28;20026;-63
2023/02/11 14:59:17;;;;;;;9.57;6.10;;;10.90;99.90;;;;;;5033507;28;20041;-63
2023/02/11 15:01:49;;;;;;;12.25;7.10;;;10.80;99.90;;;;;;5033987;28;20104;-63
2023/02/11 15:04:24;;;;;;;10.30;5.60;;;10.70;99.90;;;;;;5031597;28;20060;-63
2023/02/11 15:06:50;;;;;;;11.25;5.47;;;10.60;99.90;;;;;;5036595;28;20029;-62
2023/02/11 15:09:25;;;;;;;11.52;6.38;;;10.50;99.90;;;;;;5033638;28;20109;-63
2023/02/11 15:11:52;;;;;;;9.23;5.80;;;10.40;99.90;;;;;;5032709;28;20017;-63
2023/02/11 15:14:35;;;;;;;8.25;5.75;;;10.30;99.90;;;;;;5049069;28;20040;-63
2023/02/11 15:17:04;;;;;;;9.80;6.28;;;10.30;99.90;;;;;;5052036;28;20404;-63
2023/02/11 15:19:37;;;;;;;10.00;6.18;;;10.20;99.90;;;;;;5032251;28;20478;-63
2023/02/11 15:22:18;;;;;;;10.45;6.60;;;10.20;99.90;;;;;;5035885;28;20032;-63
2023/02/11 15:24:56;;;;;;;11.13;6.13;;;10.20;99.90;;;;;;5052985;28;20043;-63
2023/02/11 15:27:24;;;;;;;11.27;5.82;;;10.20;99.90;;;;;;5053241;28;20432;-62
2023/02/11 15:29:51;;;;;;;10.25;6.32;;;10.20;99.90;;;;;;5044488;28;20051;-63
2023/02/11 15:32:23;;;;;;;9.13;5.45;;;10.10;99.90;;;;;;5032532;28;20021;-64
2023/02/11 15:34:51;;;;;;;9.38;5.18;;;10.10;99.90;;;;;;5035189;28;20018;-63
2023/02/11 15:37:25;;;;;;;9.70;6.75;;;10.10;99.90;;;;;;5039796;28;20105;-64
2023/02/11 15:39:51;;;;;;;9.52;6.07;;;10.10;99.90;;;;;;5033919;28;20501;-63
2023/02/11 15:42:29;;;;;;;10.90;6.18;;;10.10;99.90;;;;;;5040311;28;20049;-64
2023/02/11 15:45:22;;;;;;;7.85;5.45;;;10.00;99.90;;;;;;5038095;28;20025;-62
2023/02/11 15:47:54;;;;;;;10.40;5.90;;;10.00;99.90;;;;;;5041292;28;20081;-62
2023/02/11 15:50:29;;;;;;;8.90;5.00;;;9.90;99.90;;;;;;5038635;28;20056;-62
2023/02/11 15:52:58;;;;;;;12.93;6.05;;;9.90;99.90;;;;;;5042488;28;20021;-61
2023/02/11 15:55:26;;;;;;;8.75;5.55;;;9.90;99.90;;;;;;5043026;28;20136;-61
2023/02/11 15:57:58;;;;;;;10.52;6.30;;;9.90;99.90;;;;;;5040636;28;20128;-62
2023/02/11 16:00:31;;;;;;;9.88;6.05;;;9.90;99.90;;;;;;5037154;28;20029;-61
2023/02/11 16:02:57;;;;;;;11.05;6.07;;;9.90;99.90;;;;;;5037016;28;20017;-61
2023/02/11 16:05:30;;;;;;;12.25;7.75;;;9.80;99.90;;;;;;5047604;28;20079;-61
2023/02/11 16:07:57;;;;;;;11.73;6.90;;;9.80;99.90;;;;;;5038465;28;20103;-61
2023/02/11 16:10:34;;;;;;;13.77;6.50;;;9.80;99.90;;;;;;5045584;28;20115;-60
2023/02/11 16:13:06;;;;;;;12.48;7.80;;;9.80;99.90;;;;;;5037580;28;20389;-60
2023/02/11 16:15:47;;;;;;;10.90;6.20;;;9.80;99.90;;;;;;5032756;28;20025;-60
2023/02/11 16:18:25;;;;;;;9.75;5.47;;;9.80;99.90;;;;;;5034760;28;20541;-60
2023/02/11 16:20:51;;;;;;;8.95;5.90;;;9.70;99.90;;;;;;5042505;28;20029;-61
2023/02/11 16:23:27;;;;;;;11.65;6.45;;;9.70;99.90;;;;;;5048890;28;20471;-61
2023/02/11 16:26:19;;;;;;;9.95;6.72;;;9.70;99.90;;;;;;5041704;28;20469;-61
2023/02/11 16:28:44;;;;;;;10.65;6.85;;;9.60;99.90;;;;;;5045621;28;20466;-61
2023/02/11 16:31:10;;;;;;;10.02;6.55;;;9.60;99.90;;;;;;5031077;28;20029;-61
2023/02/11 16:33:36;;;;;;;12.52;6.80;;;9.50;99.90;;;;;;5032475;28;20108;-62
2023/02/11 16:36:10;;;;;;;11.98;7.10;;;9.50;99.90;;;;;;5030990;28;20132;-62
2023/02/11 16:38:36;;;;;;;13.85;7.78;;;9.40;99.90;;;;;;5041698;28;20056;-61
2023/02/11 16:41:01;;;;;;;19.40;9.95;;;9.40;99.90;;;;;;5059737;28;20029;-62
2023/02/11 16:43:27;;;;;;;13.02;8.80;;;9.30;99.90;;;;;;5056346;28;20062;-62
2023/02/11 16:45:52;;;;;;;13.10;7.53;;;9.30;99.90;;;;;;5065872;28;20021;-62
2023/02/11 16:48:19;;;;;;;12.68;7.95;;;9.20;99.90;;;;;;5058334;28;20073;-62
2023/02/11 16:50:47;;;;;;;13.40;7.57;;;9.10;99.90;;;;;;5059473;28;20025;-62
2023/02/11 16:53:19;;;;;;;14.07;7.47;;;9.10;99.90;;;;;;5051061;28;20112;-62
2023/02/11 16:55:45;;;;;;;13.48;8.05;;;9.00;99.90;;;;;;5050633;28;20132;-61
2023/02/11 16:58:10;;;;;;;11.95;7.53;;;8.90;99.90;;;;;;5051037;28;20043;-61
2023/02/11 17:00:36;;;;;;;12.20;7.40;;;8.90;99.90;;;;;;5051071;28;20067;-61
2023/02/11 17:03:05;;;;;;;14.32;7.20;;;8.90;99.90;;;;;;5059260;28;20291;-61
2023/02/11 17:05:31;;;;;;;15.73;7.90;;;8.90;99.90;;;;;;5071033;28;20020;-61
2023/02/11 17:07:57;;;;;;;12.52;6.97;;;8.80;99.90;;;;;;5070808;28;20020;-61
2023/02/11 17:10:23;;;;;;;12.18;6.60;;;8.80;99.90;;;;;;5067669;28;20119;-61
2023/02/11 17:12:50;;;;;;;10.65;7.28;;;8.70;99.90;;;;;;5050480;28;20029;-62
2023/02/11 17:15:16;;;;;;;11.23;6.70;;;8.60;99.90;;;;;;5050175;28;20039;-61
2023/02/11 17:17:41;;;;;;;11.77;5.97;;;8.60;99.90;;;;;;5049916;28;20017;-61
2023/02/11 17:20:10;;;;;;;11.80;5.80;;;8.50;99.90;;;;;;5050150;28;20433;-62
2023/02/11 17:22:35;;;;;;;10.20;5.65;;;8.50;99.90;;;;;;5050608;28;20067;-61
2023/02/11 17:25:01;;;;;;;14.20;7.20;;;8.40;99.90;;;;;;5049621;28;20029;-61
2023/02/11 17:27:26;;;;;;;13.45;7.47;;;8.40;99.90;;;;;;5050322;28;20079;-63
2023/02/11 17:29:52;;;;;;;12.48;7.82;;;8.30;99.90;;;;;;5047176;28;20098;-61
2023/02/11 17:32:18;;;;;;;14.02;8.55;;;8.30;99.90;;;;;;5070012;28;20048;-61
2023/02/11 17:34:43;;;;;;;17.75;9.38;;;8.30;99.90;;;;;;5064420;28;20017;-61
2023/02/11 17:37:09;;;;;;;14.05;8.50;;;8.20;99.90;;;;;;5057542;28;20032;-61
2023/02/11 17:39:36;;;;;;;15.35;7.88;;;8.20;99.90;;;;;;5048994;28;20132;-61
2023/02/11 17:42:02;;;;;;;14.38;8.15;;;8.20;99.90;;;;;;5049771;28;20013;-61
2023/02/11 17:44:28;;;;;;;12.38;7.43;;;8.20;99.90;;;;;;5068778;28;20071;-61
2023/02/11 17:46:53;;;;;;;15.48;8.13;;;8.20;99.90;;;;;;5069202;28;20024;-61
2023/02/11 17:49:19;;;;;;;15.40;7.45;;;8.20;99.90;;;;;;5070465;28;20029;-61
2023/02/11 17:51:45;;;;;;;17.98;8.35;;;8.20;99.90;;;;;;5061424;28;20017;-61
2023/02/11 17:54:17;;;;;;;15.15;7.72;;;8.20;99.90;;;;;;5063189;28;20032;-61
2023/02/11 17:56:43;;;;;;;15.55;7.45;;;8.10;99.90;;;;;;5070813;28;20081;-61
2023/02/11 17:59:10;;;;;;;13.65;7.43;;;8.10;99.90;;;;;;5069594;28;20142;-61
2023/02/11 18:01:37;;;;;;;12.68;7.43;;;8.10;99.90;;;;;;5070425;28;20033;-61
2023/02/11 18:04:03;;;;;;;13.82;7.53;;;8.10;99.90;;;;;;5069827;28;20021;-61
2023/02/11 18:06:29;;;;;;;14.25;8.02;;;8.10;99.90;;;;;;5060637;28;20021;-61
2023/02/11 18:08:58;;;;;;;14.55;8.32;;;8.10;99.90;;;;;;5049815;28;20527;-61
2023/02/11 18:11:24;;;;;;;13.48;7.45;;;8.10;99.90;;;;;;5050189;28;20482;-60
2023/02/11 18:13:53;;;;;;;13.75;7.20;;;8.10;99.90;;;;;;5049099;28;20475;-60
2023/02/11 18:16:20;;;;;;;11.63;6.80;;;8.10;99.90;;;;;;5050347;28;20021;-60
2023/02/11 18:18:46;;;;;;;12.70;6.20;;;8.10;99.90;;;;;;5051491;28;20393;-60
2023/02/11 18:21:14;;;;;;;11.90;6.57;;;8.10;99.90;;;;;;5069263;28;20063;-61
2023/02/11 18:23:40;;;;;;;15.15;6.95;;;8.20;99.90;;;;;;5070171;28;20112;-61
2023/02/11 18:26:07;;;;;;;11.48;6.53;;;8.20;99.90;;;;;;5072582;28;20028;-61
2023/02/11 18:28:33;;;;;;;12.32;6.65;;;8.20;99.90;;;;;;5069408;28;20024;-61
2023/02/11 18:30:59;;;;;;;12.57;6.60;;;8.20;99.90;;;;;;5053340;28;20442;-61
2023/02/11 18:33:25;;;;;;;11.30;6.72;;;8.20;99.90;;;;;;5054027;28;20020;-60
2023/02/11 18:35:51;;;;;;;12.30;6.68;;;8.20;99.90;;;;;;5053821;28;20087;-61
2023/02/11 18:38:17;;;;;;;11.13;6.32;;;8.20;99.90;;;;;;5026077;28;20038;-61
2023/02/11 18:40:46;;;;;;;13.18;6.38;;;8.20;99.90;;;;;;5014843;28;20030;-61
2023/02/11 18:43:13;;;;;;;13.00;7.15;;;8.30;99.90;;;;;;5013032;28;20109;-60
2023/02/11 18:45:42;;;;;;;11.88;6.63;;;8.30;99.90;;;;;;5014807;28;20022;-60
2023/02/11 18:48:08;;;;;;;13.88;7.05;;;8.30;99.90;;;;;;5013087;28;20717;-61
2023/02/11 18:50:34;;;;;;;14.15;7.13;;;8.30;99.90;;;;;;5014021;28;20538;-60
2023/02/11 18:53:00;;;;;;;15.57;7.38;;;8.30;99.90;;;;;;5013329;28;20030;-62
2023/02/11 18:55:25;;;;;;;17.73;10.52;;;8.30;99.90;;;;;;5013437;28;20026;-61
2023/02/11 18:57:51;;;;;;;22.45;11.32;;;8.30;99.90;;;;;;5014443;28;20034;-60
2023/02/11 19:00:18;;;;;;;16.08;10.57;;;8.30;99.90;;;;;;5013522;28;20387;-60
2023/02/11 19:02:44;;;;;;;13.85;8.75;;;8.30;99.90;;;;;;5012933;28;20030;-61
2023/02/11 19:05:10;;;;;;;18.80;10.35;;;8.30;99.90;;;;;;5013450;28;20029;-61
2023/02/11 19:07:36;;;;;;;17.92;9.80;;;8.30;99.90;;;;;;5013560;28;20034;-61
2023/02/11 19:10:03;;;;;;;16.98;9.77;;;8.30;99.90;;;;;;5013795;28;20018;-60
2023/02/11 19:12:29;;;;;;;21.10;10.45;;;8.40;99.90;;;;;;5013436;28;20036;-61
2023/02/11 19:14:57;;;;;;;15.52;9.05;;;8.30;99.90;;;;;;5014101;28;20029;-61
2023/02/11 19:17:23;;;;;;;19.65;8.82;;;8.40;99.90;;;;;;5012567;28;20100;-60
2023/02/11 19:19:49;;;;;;;17.35;9.18;;;8.30;99.90;;;;;;5013424;28;20121;-61
2023/02/11 19:22:15;;;;;;;16.13;8.60;;;8.40;99.90;;;;;;5016892;28;20095;-61
2023/02/11 19:24:41;;;;;;;16.80;8.48;;;8.40;99.90;;;;;;5033185;28;20085;-61
2023/02/11 19:27:07;;;;;;;18.73;9.60;;;8.40;99.90;;;;;;5033363;28;20037;-60
2023/02/11 19:29:33;;;;;;;17.38;9.13;;;8.40;99.90;;;;;;5033982;28;20100;-61
2023/02/11 19:32:00;;;;;;;18.60;10.07;;;8.50;99.90;;;;;;5032796;28;20034;-61
2023/02/11 19:34:26;;;;;;;18.13;10.10;;;8.50;99.90;;;;;;5034060;28;20032;-61
2023/02/11 19:36:53;;;;;;;15.48;9.27;;;8.50;99.90;;;;;;5027005;28;20021;-61
2023/02/11 19:39:19;;;;;;;16.77;9.35;;;8.50;99.90;;;;;;5042491;28;20048;-61
2023/02/11 19:41:45;;;;;;;15.90;9.15;;;8.50;99.90;;;;;;5053131;28;20067;-61
2023/02/11 19:44:12;;;;;;;26.77;12.45;;;8.50;99.90;;;;;;5052963;28;20083;-61
2023/02/11 19:46:42;;;;;;;18.55;10.13;;;8.50;99.90;;;;;;5053280;28;20384;-61
2023/02/11 19:49:08;;;;;;;18.98;10.65;;;8.60;99.90;;;;;;5035477;28;20029;-61
2023/02/11 19:51:37;;;;;;;18.67;11.20;;;8.50;99.90;;;;;;5052603;28;20025;-61
2023/02/11 19:54:04;;;;;;;21.48;10.63;;;8.50;99.90;;;;;;5052540;28;20505;-61
2023/02/11 19:56:30;;;;;;;18.58;10.10;;;8.50;99.90;;;;;;5053098;28;20100;-61
2023/02/11 19:58:56;;;;;;;14.52;9.13;;;8.50;99.90;;;;;;5051800;28;20149;-61
2023/02/11 20:01:23;;;;;;;20.02;9.32;;;8.60;99.90;;;;;;5053804;28;20021;-61
2023/02/11 20:03:51;;;;;;;16.90;9.50;;;8.60;99.90;;;;;;5052665;28;20074;-61
2023/02/11 20:06:24;;;;;;;18.73;9.75;;;8.60;99.90;;;;;;5051489;28;20024;-60
2023/02/11 20:09:01;;;;;;;16.60;9.77;;;8.60;99.90;;;;;;5052470;28;20037;-61
2023/02/11 20:11:29;;;;;;;18.55;9.63;;;8.60;99.90;;;;;;5052497;28;20499;-61
2023/02/11 20:13:55;;;;;;;16.98;9.30;;;8.60;99.90;;;;;;5051610;28;20018;-61
2023/02/11 20:16:22;;;;;;;18.20;9.98;;;8.60;99.90;;;;;;5059329;28;20036;-61
2023/02/11 20:18:49;;;;;;;15.18;9.45;;;8.50;99.90;;;;;;5072997;28;20037;-60
2023/02/11 20:21:18;;;;;;;16.30;9.07;;;8.50;99.90;;;;;;5071720;28;20074;-61
2023/02/11 20:23:45;;;;;;;16.77;10.23;;;8.50;99.90;;;;;;5072471;28;20032;-61
2023/02/11 20:26:18;;;;;;;17.90;9.77;;;8.50;99.90;;;;;;5056696;28;20023;-61
